Dungannon, Virginia
Current Conditions -  °F | °C
As of 1:15 AM on Thursday 29 Jan 2015 (Local Time) from KLNP Reporting Station
Clear Clear  
Wind Chill: 29°   Ceiling: Unl
Heat Index: 36°   Visibility: 10mi
Dew Point:   Wind: 8mph
Humidity: 33%   Direction: 160°SSE
Pressure: 30.16"   Gusts: NA
Location:  36.83°N, 82.47°W
Report Text: KLNP 290615Z AUTO 16007KT 10SM CLR 02/M13 A3016 RMK AO2
Loading
Personal Weather Stations






























Interactive Weather Map New forecast layout! Learn more

10-Day Weather Forecast

Advertisements
Track Severe Weather on mobile